Main page
METAR-TAF:

METAR-TAF

Airports :

Augsburg Airport

Augsburg, Germany

latitude: 48-26N, longitude: 010-56E, elevation: 461 m

Current weather observation

The report was made 17 minutes ago, at 07:20 UTC
Wind 1 kt from variable directions
Temperature 0°C
Humidity 100%
Pressure 1012 hPa
Visibility 10 km or more
no clouds below 1500 m and no cumulonimbus

METAR: EDMA 160720Z VRB01KT CAVOK 00/00 Q1012

Time: 08:37 (07:37 UTC)

Forecast

The report was made 1 hour and 44 minutes ago, at 05:53 UTC
Forecast valid from 16 at 06 UTC to 16 at 15 UTC
Wind 4 kt from the Southeast
Visibility 10 km or more
no clouds below 1500 m and no cumulonimbus

TAF: EDMA 160553Z 1606/1615 13004KT CAVOK

Weather observations and forecasts of more than 4000 airports (METAR and TAF reports).

The available stations are represented by yellow and red dots on the map.

Hover mouse over dot to see the name of the station.

Then click to see weather observations and forecasts.

To change the map : click on the green buttons with a black cross to zoom in, on the green button with a dash to zoom out, or on the green arrows for adjacent maps.


METAR-TAF: